sensor_id;sensor_type;location;lat;lon;timestamp;P1;durP1;ratioP1;P2;durP2;ratioP2
46429;SDS011;32131;53.454;-6.180;2023-01-24T00:00:24;22.45;;;10.07;;
46429;SDS011;32131;53.454;-6.180;2023-01-24T00:02:54;17.58;;;9.15;;
46429;SDS011;32131;53.454;-6.180;2023-01-24T00:05:26;21.10;;;9.60;;
46429;SDS011;32131;53.454;-6.180;2023-01-24T00:07:58;20.50;;;9.85;;
46429;SDS011;32131;53.454;-6.180;2023-01-24T00:10:36;17.40;;;9.60;;
46429;SDS011;32131;53.454;-6.180;2023-01-24T00:13:06;14.40;;;8.90;;
46429;SDS011;32131;53.454;-6.180;2023-01-24T00:15:39;14.80;;;9.07;;
46429;SDS011;32131;53.454;-6.180;2023-01-24T00:18:19;18.27;;;9.45;;
46429;SDS011;32131;53.454;-6.180;2023-01-24T00:20:54;19.50;;;10.10;;
46429;SDS011;32131;53.454;-6.180;2023-01-24T00:23:53;19.88;;;8.63;;
46429;SDS011;32131;53.454;-6.180;2023-01-24T00:26:50;21.05;;;8.90;;
46429;SDS011;32131;53.454;-6.180;2023-01-24T00:32:06;17.05;;;8.77;;
46429;SDS011;32131;53.454;-6.180;2023-01-24T00:34:54;17.67;;;9.35;;
46429;SDS011;32131;53.454;-6.180;2023-01-24T00:37:45;17.77;;;9.48;;
46429;SDS011;32131;53.454;-6.180;2023-01-24T00:40:19;19.38;;;10.00;;
46429;SDS011;32131;53.454;-6.180;2023-01-24T00:43:02;16.88;;;10.10;;
46429;SDS011;32131;53.454;-6.180;2023-01-24T00:46:04;15.65;;;9.82;;
46429;SDS011;32131;53.454;-6.180;2023-01-24T00:49:00;15.40;;;7.97;;
46429;SDS011;32131;53.454;-6.180;2023-01-24T00:51:45;20.90;;;9.23;;
46429;SDS011;32131;53.454;-6.180;2023-01-24T00:54:27;17.08;;;9.32;;
46429;SDS011;32131;53.454;-6.180;2023-01-24T00:57:04;17.77;;;9.48;;
46429;SDS011;32131;53.454;-6.180;2023-01-24T00:59:44;18.10;;;9.40;;
46429;SDS011;32131;53.454;-6.180;2023-01-24T01:02:19;17.25;;;8.75;;
46429;SDS011;32131;53.454;-6.180;2023-01-24T01:04:54;14.50;;;9.57;;
46429;SDS011;32131;53.454;-6.180;2023-01-24T01:07:35;17.80;;;9.27;;
46429;SDS011;32131;53.454;-6.180;2023-01-24T01:13:25;14.98;;;8.93;;
46429;SDS011;32131;53.454;-6.180;2023-01-24T01:15:59;15.30;;;8.27;;
46429;SDS011;32131;53.454;-6.180;2023-01-24T01:18:43;13.07;;;6.90;;
46429;SDS011;32131;53.454;-6.180;2023-01-24T01:21:26;12.10;;;6.82;;
46429;SDS011;32131;53.454;-6.180;2023-01-24T01:24:14;13.48;;;7.68;;
46429;SDS011;32131;53.454;-6.180;2023-01-24T01:26:49;12.40;;;7.97;;
46429;SDS011;32131;53.454;-6.180;2023-01-24T01:32:10;17.95;;;8.90;;
46429;SDS011;32131;53.454;-6.180;2023-01-24T01:34:44;19.25;;;9.13;;
46429;SDS011;32131;53.454;-6.180;2023-01-24T01:37:33;14.37;;;9.17;;
46429;SDS011;32131;53.454;-6.180;2023-01-24T01:40:18;19.20;;;9.27;;
46429;SDS011;32131;53.454;-6.180;2023-01-24T01:43:10;14.38;;;9.15;;
46429;SDS011;32131;53.454;-6.180;2023-01-24T01:45:52;16.65;;;9.07;;
46429;SDS011;32131;53.454;-6.180;2023-01-24T01:48:49;17.90;;;8.88;;
46429;SDS011;32131;53.454;-6.180;2023-01-24T01:51:48;14.32;;;9.05;;
46429;SDS011;32131;53.454;-6.180;2023-01-24T01:54:22;17.90;;;9.18;;
46429;SDS011;32131;53.454;-6.180;2023-01-24T01:57:23;19.23;;;8.98;;
46429;SDS011;32131;53.454;-6.180;2023-01-24T02:00:25;18.67;;;8.50;;
46429;SDS011;32131;53.454;-6.180;2023-01-24T02:03:09;20.77;;;8.73;;
46429;SDS011;32131;53.454;-6.180;2023-01-24T02:06:23;23.63;;;9.80;;
46429;SDS011;32131;53.454;-6.180;2023-01-24T02:09:22;21.88;;;9.82;;
46429;SDS011;32131;53.454;-6.180;2023-01-24T02:11:58;38.92;;;9.75;;
46429;SDS011;32131;53.454;-6.180;2023-01-24T02:17:42;44.63;;;10.05;;
46429;SDS011;32131;53.454;-6.180;2023-01-24T02:20:38;24.25;;;8.85;;
46429;SDS011;32131;53.454;-6.180;2023-01-24T02:23:51;30.08;;;9.35;;
46429;SDS011;32131;53.454;-6.180;2023-01-24T02:29:29;32.10;;;9.27;;
46429;SDS011;32131;53.454;-6.180;2023-01-24T02:32:06;16.67;;;8.95;;
46429;SDS011;32131;53.454;-6.180;2023-01-24T02:34:49;19.25;;;8.70;;
46429;SDS011;32131;53.454;-6.180;2023-01-24T02:37:20;25.30;;;9.75;;
46429;SDS011;32131;53.454;-6.180;2023-01-24T02:39:54;14.30;;;7.53;;
46429;SDS011;32131;53.454;-6.180;2023-01-24T02:42:30;20.70;;;9.13;;
46429;SDS011;32131;53.454;-6.180;2023-01-24T02:45:31;13.75;;;7.55;;
46429;SDS011;32131;53.454;-6.180;2023-01-24T02:49:12;19.83;;;9.13;;
46429;SDS011;32131;53.454;-6.180;2023-01-24T02:52:09;14.95;;;8.23;;
46429;SDS011;32131;53.454;-6.180;2023-01-24T02:55:23;15.05;;;7.68;;
46429;SDS011;32131;53.454;-6.180;2023-01-24T03:02:10;15.35;;;7.97;;
46429;SDS011;32131;53.454;-6.180;2023-01-24T03:04:43;19.25;;;8.15;;
46429;SDS011;32131;53.454;-6.180;2023-01-24T03:07:51;13.77;;;7.82;;
46429;SDS011;32131;53.454;-6.180;2023-01-24T03:11:12;14.65;;;8.30;;
46429;SDS011;32131;53.454;-6.180;2023-01-24T03:14:10;16.17;;;8.57;;
46429;SDS011;32131;53.454;-6.180;2023-01-24T03:17:09;13.05;;;7.05;;
46429;SDS011;32131;53.454;-6.180;2023-01-24T03:20:00;12.85;;;7.55;;
46429;SDS011;32131;53.454;-6.180;2023-01-24T03:23:11;12.57;;;7.18;;
46429;SDS011;32131;53.454;-6.180;2023-01-24T03:26:19;12.55;;;7.38;;
46429;SDS011;32131;53.454;-6.180;2023-01-24T03:29:54;13.38;;;7.55;;
46429;SDS011;32131;53.454;-6.180;2023-01-24T03:32:50;11.35;;;6.85;;
46429;SDS011;32131;53.454;-6.180;2023-01-24T03:35:41;14.15;;;7.88;;
46429;SDS011;32131;53.454;-6.180;2023-01-24T03:38:38;12.77;;;7.45;;
46429;SDS011;32131;53.454;-6.180;2023-01-24T03:41:51;14.52;;;8.35;;
46429;SDS011;32131;53.454;-6.180;2023-01-24T03:45:09;9.75;;;6.63;;
46429;SDS011;32131;53.454;-6.180;2023-01-24T03:48:21;12.20;;;7.50;;
46429;SDS011;32131;53.454;-6.180;2023-01-24T03:51:37;11.88;;;7.20;;
46429;SDS011;32131;53.454;-6.180;2023-01-24T03:54:54;12.43;;;7.00;;
46429;SDS011;32131;53.454;-6.180;2023-01-24T03:58:00;12.15;;;7.50;;
46429;SDS011;32131;53.454;-6.180;2023-01-24T04:00:49;13.25;;;7.18;;
46429;SDS011;32131;53.454;-6.180;2023-01-24T04:06:45;12.82;;;7.10;;
46429;SDS011;32131;53.454;-6.180;2023-01-24T04:09:53;11.35;;;6.35;;
46429;SDS011;32131;53.454;-6.180;2023-01-24T04:12:51;13.18;;;7.05;;
46429;SDS011;32131;53.454;-6.180;2023-01-24T04:16:11;14.27;;;7.43;;
46429;SDS011;32131;53.454;-6.180;2023-01-24T04:26:29;12.38;;;6.57;;
46429;SDS011;32131;53.454;-6.180;2023-01-24T04:29:47;12.25;;;7.13;;
46429;SDS011;32131;53.454;-6.180;2023-01-24T04:32:13;10.88;;;6.57;;
46429;SDS011;32131;53.454;-6.180;2023-01-24T04:35:27;12.15;;;6.95;;
46429;SDS011;32131;53.454;-6.180;2023-01-24T04:38:40;13.75;;;7.45;;
46429;SDS011;32131;53.454;-6.180;2023-01-24T04:41:15;13.52;;;7.72;;
46429;SDS011;32131;53.454;-6.180;2023-01-24T04:43:58;11.30;;;7.20;;
46429;SDS011;32131;53.454;-6.180;2023-01-24T04:46:37;13.23;;;6.97;;
46429;SDS011;32131;53.454;-6.180;2023-01-24T04:49:31;11.52;;;7.00;;
46429;SDS011;32131;53.454;-6.180;2023-01-24T04:52:07;10.98;;;6.93;;
46429;SDS011;32131;53.454;-6.180;2023-01-24T04:55:17;14.25;;;7.85;;
46429;SDS011;32131;53.454;-6.180;2023-01-24T04:57:47;16.58;;;7.35;;
46429;SDS011;32131;53.454;-6.180;2023-01-24T05:01:13;15.05;;;7.57;;
46429;SDS011;32131;53.454;-6.180;2023-01-24T05:07:42;12.35;;;6.68;;
46429;SDS011;32131;53.454;-6.180;2023-01-24T05:10:42;14.02;;;7.75;;
46429;SDS011;32131;53.454;-6.180;2023-01-24T05:13:40;14.65;;;8.38;;
46429;SDS011;32131;53.454;-6.180;2023-01-24T05:19:51;13.40;;;8.07;;
46429;SDS011;32131;53.454;-6.180;2023-01-24T05:23:08;15.60;;;8.57;;
46429;SDS011;32131;53.454;-6.180;2023-01-24T05:26:32;14.50;;;7.95;;
46429;SDS011;32131;53.454;-6.180;2023-01-24T05:29:18;11.38;;;6.55;;
46429;SDS011;32131;53.454;-6.180;2023-01-24T05:31:56;11.75;;;7.10;;
46429;SDS011;32131;53.454;-6.180;2023-01-24T05:34:43;13.40;;;7.95;;
46429;SDS011;32131;53.454;-6.180;2023-01-24T05:37:57;15.57;;;7.78;;
46429;SDS011;32131;53.454;-6.180;2023-01-24T05:41:20;13.98;;;8.13;;
46429;SDS011;32131;53.454;-6.180;2023-01-24T05:47:47;12.50;;;7.00;;
46429;SDS011;32131;53.454;-6.180;2023-01-24T05:51:12;14.70;;;7.82;;
46429;SDS011;32131;53.454;-6.180;2023-01-24T05:54:11;14.10;;;7.80;;
46429;SDS011;32131;53.454;-6.180;2023-01-24T05:57:14;16.55;;;8.68;;
46429;SDS011;32131;53.454;-6.180;2023-01-24T06:00:13;14.57;;;7.93;;
46429;SDS011;32131;53.454;-6.180;2023-01-24T06:03:05;14.48;;;8.48;;
46429;SDS011;32131;53.454;-6.180;2023-01-24T06:06:14;15.05;;;7.75;;
46429;SDS011;32131;53.454;-6.180;2023-01-24T06:09:27;13.13;;;7.53;;
46429;SDS011;32131;53.454;-6.180;2023-01-24T06:12:39;13.50;;;8.05;;
46429;SDS011;32131;53.454;-6.180;2023-01-24T06:16:37;13.30;;;7.45;;
46429;SDS011;32131;53.454;-6.180;2023-01-24T06:19:27;14.38;;;6.50;;
46429;SDS011;32131;53.454;-6.180;2023-01-24T06:22:47;14.35;;;8.18;;
46429;SDS011;32131;53.454;-6.180;2023-01-24T06:26:17;15.43;;;7.90;;
46429;SDS011;32131;53.454;-6.180;2023-01-24T06:44:07;15.25;;;7.80;;
46429;SDS011;32131;53.454;-6.180;2023-01-24T06:46:57;18.42;;;9.00;;
46429;SDS011;32131;53.454;-6.180;2023-01-24T06:52:17;17.15;;;8.15;;
46429;SDS011;32131;53.454;-6.180;2023-01-24T06:54:32;13.65;;;7.53;;
46429;SDS011;32131;53.454;-6.180;2023-01-24T06:57:05;18.70;;;8.23;;
46429;SDS011;32131;53.454;-6.180;2023-01-24T07:03:22;15.52;;;8.50;;
46429;SDS011;32131;53.454;-6.180;2023-01-24T07:06:27;13.55;;;7.15;;
46429;SDS011;32131;53.454;-6.180;2023-01-24T07:09:18;15.02;;;8.43;;
46429;SDS011;32131;53.454;-6.180;2023-01-24T07:12:17;15.95;;;8.98;;
46429;SDS011;32131;53.454;-6.180;2023-01-24T07:22:26;19.17;;;8.57;;
46429;SDS011;32131;53.454;-6.180;2023-01-24T07:25:27;15.23;;;8.27;;
46429;SDS011;32131;53.454;-6.180;2023-01-24T07:29:30;13.02;;;7.85;;
46429;SDS011;32131;53.454;-6.180;2023-01-24T07:40:48;15.52;;;7.85;;
46429;SDS011;32131;53.454;-6.180;2023-01-24T07:45:44;17.60;;;8.70;;
46429;SDS011;32131;53.454;-6.180;2023-01-24T07:55:29;18.40;;;9.20;;
46429;SDS011;32131;53.454;-6.180;2023-01-24T07:58:50;18.60;;;10.13;;
46429;SDS011;32131;53.454;-6.180;2023-01-24T08:13:38;21.20;;;10.98;;
46429;SDS011;32131;53.454;-6.180;2023-01-24T08:16:43;18.20;;;10.00;;
46429;SDS011;32131;53.454;-6.180;2023-01-24T08:19:24;22.33;;;10.60;;
46429;SDS011;32131;53.454;-6.180;2023-01-24T08:22:22;20.80;;;9.70;;
46429;SDS011;32131;53.454;-6.180;2023-01-24T08:29:17;19.35;;;8.88;;
46429;SDS011;32131;53.454;-6.180;2023-01-24T08:32:18;15.60;;;8.65;;
46429;SDS011;32131;53.454;-6.180;2023-01-24T08:36:15;13.75;;;7.50;;
46429;SDS011;32131;53.454;-6.180;2023-01-24T08:49:41;15.57;;;7.22;;
46429;SDS011;32131;53.454;-6.180;2023-01-24T08:52:59;15.77;;;8.27;;
46429;SDS011;32131;53.454;-6.180;2023-01-24T08:56:23;17.85;;;8.60;;
46429;SDS011;32131;53.454;-6.180;2023-01-24T09:03:28;16.95;;;8.18;;
46429;SDS011;32131;53.454;-6.180;2023-01-24T09:06:36;15.57;;;7.90;;
46429;SDS011;32131;53.454;-6.180;2023-01-24T09:13:08;13.85;;;7.75;;
46429;SDS011;32131;53.454;-6.180;2023-01-24T09:15:46;19.80;;;8.95;;
46429;SDS011;32131;53.454;-6.180;2023-01-24T09:18:24;14.98;;;8.27;;
46429;SDS011;32131;53.454;-6.180;2023-01-24T09:21:16;19.10;;;8.35;;
46429;SDS011;32131;53.454;-6.180;2023-01-24T09:23:54;15.63;;;8.65;;
46429;SDS011;32131;53.454;-6.180;2023-01-24T09:26:37;16.20;;;9.07;;
46429;SDS011;32131;53.454;-6.180;2023-01-24T09:29:16;14.35;;;8.23;;
46429;SDS011;32131;53.454;-6.180;2023-01-24T09:31:47;15.77;;;8.02;;
46429;SDS011;32131;53.454;-6.180;2023-01-24T09:34:30;15.77;;;8.88;;
46429;SDS011;32131;53.454;-6.180;2023-01-24T09:37:11;13.98;;;7.28;;
46429;SDS011;32131;53.454;-6.180;2023-01-24T09:39:51;19.60;;;8.63;;
46429;SDS011;32131;53.454;-6.180;2023-01-24T09:42:29;15.18;;;7.68;;
46429;SDS011;32131;53.454;-6.180;2023-01-24T09:45:22;14.73;;;7.63;;
46429;SDS011;32131;53.454;-6.180;2023-01-24T09:56:30;11.32;;;6.68;;
46429;SDS011;32131;53.454;-6.180;2023-01-24T09:59:32;17.98;;;7.25;;
46429;SDS011;32131;53.454;-6.180;2023-01-24T10:02:19;13.82;;;7.60;;
46429;SDS011;32131;53.454;-6.180;2023-01-24T10:04:53;14.10;;;7.97;;
46429;SDS011;32131;53.454;-6.180;2023-01-24T10:07:44;15.57;;;7.50;;
46429;SDS011;32131;53.454;-6.180;2023-01-24T10:10:43;14.25;;;7.53;;
46429;SDS011;32131;53.454;-6.180;2023-01-24T10:17:31;15.13;;;8.63;;
46429;SDS011;32131;53.454;-6.180;2023-01-24T10:21:16;20.17;;;9.45;;
46429;SDS011;32131;53.454;-6.180;2023-01-24T10:24:19;15.20;;;8.68;;
46429;SDS011;32131;53.454;-6.180;2023-01-24T10:26:54;17.17;;;9.13;;
46429;SDS011;32131;53.454;-6.180;2023-01-24T10:29:42;20.70;;;10.07;;
46429;SDS011;32131;53.454;-6.180;2023-01-24T10:36:19;19.05;;;8.77;;
46429;SDS011;32131;53.454;-6.180;2023-01-24T10:39:22;17.20;;;8.52;;
46429;SDS011;32131;53.454;-6.180;2023-01-24T10:42:16;15.52;;;9.30;;
46429;SDS011;32131;53.454;-6.180;2023-01-24T10:45:40;18.90;;;9.35;;
46429;SDS011;32131;53.454;-6.180;2023-01-24T10:48:48;18.95;;;9.23;;
46429;SDS011;32131;53.454;-6.180;2023-01-24T10:51:36;18.15;;;10.27;;
46429;SDS011;32131;53.454;-6.180;2023-01-24T10:55:02;21.30;;;11.05;;
46429;SDS011;32131;53.454;-6.180;2023-01-24T11:01:54;18.38;;;9.82;;
46429;SDS011;32131;53.454;-6.180;2023-01-24T11:05:18;25.55;;;11.18;;
46429;SDS011;32131;53.454;-6.180;2023-01-24T11:08:25;18.00;;;9.35;;
46429;SDS011;32131;53.454;-6.180;2023-01-24T11:11:21;16.08;;;8.77;;
46429;SDS011;32131;53.454;-6.180;2023-01-24T11:14:52;15.18;;;7.30;;
46429;SDS011;32131;53.454;-6.180;2023-01-24T11:17:35;17.23;;;7.60;;
46429;SDS011;32131;53.454;-6.180;2023-01-24T11:20:19;14.75;;;6.68;;
46429;SDS011;32131;53.454;-6.180;2023-01-24T11:23:23;14.43;;;6.75;;
46429;SDS011;32131;53.454;-6.180;2023-01-24T11:26:25;10.07;;;3.53;;
46429;SDS011;32131;53.454;-6.180;2023-01-24T11:29:23;5.97;;;2.55;;
46429;SDS011;32131;53.454;-6.180;2023-01-24T11:32:17;4.03;;;2.17;;
46429;SDS011;32131;53.454;-6.180;2023-01-24T11:35:21;4.50;;;1.75;;
46429;SDS011;32131;53.454;-6.180;2023-01-24T11:39:07;3.38;;;2.00;;
46429;SDS011;32131;53.454;-6.180;2023-01-24T11:42:15;4.35;;;1.73;;
46429;SDS011;32131;53.454;-6.180;2023-01-24T11:45:39;3.05;;;2.10;;
46429;SDS011;32131;53.454;-6.180;2023-01-24T11:48:58;5.88;;;1.92;;
46429;SDS011;32131;53.454;-6.180;2023-01-24T11:51:52;3.08;;;1.60;;
46429;SDS011;32131;53.454;-6.180;2023-01-24T11:54:51;2.88;;;1.25;;
46429;SDS011;32131;53.454;-6.180;2023-01-24T11:57:45;2.05;;;1.20;;
46429;SDS011;32131;53.454;-6.180;2023-01-24T12:00:49;2.90;;;1.15;;
46429;SDS011;32131;53.454;-6.180;2023-01-24T12:07:31;4.32;;;1.70;;
46429;SDS011;32131;53.454;-6.180;2023-01-24T12:10:59;4.18;;;2.22;;
46429;SDS011;32131;53.454;-6.180;2023-01-24T12:20:56;3.20;;;1.70;;
46429;SDS011;32131;53.454;-6.180;2023-01-24T12:23:44;3.42;;;1.38;;
46429;SDS011;32131;53.454;-6.180;2023-01-24T12:26:47;7.55;;;1.38;;
46429;SDS011;32131;53.454;-6.180;2023-01-24T12:29:39;1.77;;;1.13;;
46429;SDS011;32131;53.454;-6.180;2023-01-24T12:32:42;2.65;;;1.40;;
46429;SDS011;32131;53.454;-6.180;2023-01-24T12:35:23;3.28;;;1.23;;
46429;SDS011;32131;53.454;-6.180;2023-01-24T12:38:22;3.90;;;1.40;;
46429;SDS011;32131;53.454;-6.180;2023-01-24T12:41:05;2.13;;;1.08;;
46429;SDS011;32131;53.454;-6.180;2023-01-24T12:44:00;1.45;;;0.90;;
46429;SDS011;32131;53.454;-6.180;2023-01-24T12:47:11;2.42;;;0.98;;
46429;SDS011;32131;53.454;-6.180;2023-01-24T12:49:57;3.95;;;1.17;;
46429;SDS011;32131;53.454;-6.180;2023-01-24T12:52:54;1.20;;;0.65;;
46429;SDS011;32131;53.454;-6.180;2023-01-24T12:55:59;0.95;;;0.60;;
46429;SDS011;32131;53.454;-6.180;2023-01-24T12:58:47;1.25;;;0.70;;
46429;SDS011;32131;53.454;-6.180;2023-01-24T13:04:38;2.50;;;1.35;;
46429;SDS011;32131;53.454;-6.180;2023-01-24T13:07:24;3.92;;;1.00;;
46429;SDS011;32131;53.454;-6.180;2023-01-24T13:10:05;3.05;;;1.20;;
46429;SDS011;32131;53.454;-6.180;2023-01-24T13:12:45;1.35;;;0.65;;
46429;SDS011;32131;53.454;-6.180;2023-01-24T13:18:36;3.37;;;0.93;;
46429;SDS011;32131;53.454;-6.180;2023-01-24T13:21:24;3.35;;;1.23;;
46429;SDS011;32131;53.454;-6.180;2023-01-24T13:27:57;4.03;;;1.35;;
46429;SDS011;32131;53.454;-6.180;2023-01-24T13:30:49;3.80;;;1.05;;
46429;SDS011;32131;53.454;-6.180;2023-01-24T13:36:53;2.38;;;1.13;;
46429;SDS011;32131;53.454;-6.180;2023-01-24T13:39:29;1.77;;;0.80;;
46429;SDS011;32131;53.454;-6.180;2023-01-24T13:42:18;4.00;;;0.90;;
46429;SDS011;32131;53.454;-6.180;2023-01-24T13:44:57;4.30;;;1.38;;
46429;SDS011;32131;53.454;-6.180;2023-01-24T13:48:29;2.30;;;0.80;;
46429;SDS011;32131;53.454;-6.180;2023-01-24T13:52:08;1.65;;;0.80;;
46429;SDS011;32131;53.454;-6.180;2023-01-24T13:58:42;4.60;;;1.60;;
46429;SDS011;32131;53.454;-6.180;2023-01-24T14:01:43;1.58;;;1.00;;
46429;SDS011;32131;53.454;-6.180;2023-01-24T14:04:41;4.75;;;2.15;;
46429;SDS011;32131;53.454;-6.180;2023-01-24T14:07:41;4.57;;;1.00;;
46429;SDS011;32131;53.454;-6.180;2023-01-24T14:10:14;2.70;;;0.77;;
46429;SDS011;32131;53.454;-6.180;2023-01-24T14:13:10;5.40;;;0.98;;
46429;SDS011;32131;53.454;-6.180;2023-01-24T14:20:24;3.72;;;1.00;;
46429;SDS011;32131;53.454;-6.180;2023-01-24T14:23:14;7.78;;;1.10;;
46429;SDS011;32131;53.454;-6.180;2023-01-24T14:25:57;3.47;;;0.98;;
46429;SDS011;32131;53.454;-6.180;2023-01-24T14:28:52;4.28;;;1.00;;
46429;SDS011;32131;53.454;-6.180;2023-01-24T14:31:56;1.50;;;0.60;;
46429;SDS011;32131;53.454;-6.180;2023-01-24T14:35:16;3.13;;;0.75;;
46429;SDS011;32131;53.454;-6.180;2023-01-24T14:41:42;1.00;;;0.40;;
46429;SDS011;32131;53.454;-6.180;2023-01-24T14:44:50;1.40;;;0.63;;
46429;SDS011;32131;53.454;-6.180;2023-01-24T14:51:44;3.90;;;0.98;;
46429;SDS011;32131;53.454;-6.180;2023-01-24T14:54:21;1.65;;;0.60;;
46429;SDS011;32131;53.454;-6.180;2023-01-24T14:57:20;1.48;;;0.60;;
46429;SDS011;32131;53.454;-6.180;2023-01-24T15:02:53;2.00;;;0.80;;
46429;SDS011;32131;53.454;-6.180;2023-01-24T15:05:38;2.80;;;0.80;;
46429;SDS011;32131;53.454;-6.180;2023-01-24T15:09:05;4.65;;;0.68;;
46429;SDS011;32131;53.454;-6.180;2023-01-24T15:15:28;2.05;;;0.90;;
46429;SDS011;32131;53.454;-6.180;2023-01-24T15:18:25;1.02;;;0.70;;
46429;SDS011;32131;53.454;-6.180;2023-01-24T15:21:33;4.68;;;1.25;;
46429;SDS011;32131;53.454;-6.180;2023-01-24T15:24:29;1.55;;;0.98;;
46429;SDS011;32131;53.454;-6.180;2023-01-24T15:31:17;2.83;;;1.08;;
46429;SDS011;32131;53.454;-6.180;2023-01-24T15:34:13;4.28;;;0.90;;
46429;SDS011;32131;53.454;-6.180;2023-01-24T15:37:25;3.30;;;1.13;;
46429;SDS011;32131;53.454;-6.180;2023-01-24T15:40:21;3.47;;;1.23;;
46429;SDS011;32131;53.454;-6.180;2023-01-24T15:43:13;3.03;;;0.90;;
46429;SDS011;32131;53.454;-6.180;2023-01-24T15:46:25;2.25;;;1.17;;
46429;SDS011;32131;53.454;-6.180;2023-01-24T15:49:39;5.00;;;1.40;;
46429;SDS011;32131;53.454;-6.180;2023-01-24T15:56:24;11.32;;;2.88;;
46429;SDS011;32131;53.454;-6.180;2023-01-24T15:59:34;3.83;;;1.40;;
46429;SDS011;32131;53.454;-6.180;2023-01-24T16:06:08;3.85;;;1.20;;
46429;SDS011;32131;53.454;-6.180;2023-01-24T16:08:49;4.35;;;1.27;;
46429;SDS011;32131;53.454;-6.180;2023-01-24T16:11:52;1.75;;;0.93;;
46429;SDS011;32131;53.454;-6.180;2023-01-24T16:14:59;4.45;;;1.30;;
46429;SDS011;32131;53.454;-6.180;2023-01-24T16:19:22;8.18;;;1.65;;
46429;SDS011;32131;53.454;-6.180;2023-01-24T16:21:38;2.08;;;0.80;;
46429;SDS011;32131;53.454;-6.180;2023-01-24T16:24:50;3.10;;;1.00;;
46429;SDS011;32131;53.454;-6.180;2023-01-24T16:27:59;1.40;;;0.85;;
46429;SDS011;32131;53.454;-6.180;2023-01-24T16:37:10;5.38;;;2.03;;
46429;SDS011;32131;53.454;-6.180;2023-01-24T16:40:05;5.13;;;2.00;;
46429;SDS011;32131;53.454;-6.180;2023-01-24T16:42:51;6.28;;;1.83;;
46429;SDS011;32131;53.454;-6.180;2023-01-24T16:45:44;5.20;;;2.28;;
46429;SDS011;32131;53.454;-6.180;2023-01-24T16:51:40;2.83;;;1.55;;
46429;SDS011;32131;53.454;-6.180;2023-01-24T16:54:14;3.95;;;1.20;;
46429;SDS011;32131;53.454;-6.180;2023-01-24T16:56:54;7.93;;;1.65;;
46429;SDS011;32131;53.454;-6.180;2023-01-24T16:59:26;2.53;;;1.40;;
46429;SDS011;32131;53.454;-6.180;2023-01-24T17:01:55;4.10;;;1.95;;
46429;SDS011;32131;53.454;-6.180;2023-01-24T17:04:38;8.05;;;2.90;;
46429;SDS011;32131;53.454;-6.180;2023-01-24T17:07:12;6.43;;;2.45;;
46429;SDS011;32131;53.454;-6.180;2023-01-24T17:09:47;5.15;;;2.33;;
46429;SDS011;32131;53.454;-6.180;2023-01-24T17:12:18;4.57;;;1.90;;
46429;SDS011;32131;53.454;-6.180;2023-01-24T17:14:47;4.65;;;1.77;;
46429;SDS011;32131;53.454;-6.180;2023-01-24T17:17:21;5.28;;;1.60;;
46429;SDS011;32131;53.454;-6.180;2023-01-24T17:20:05;4.47;;;2.55;;
46429;SDS011;32131;53.454;-6.180;2023-01-24T17:22:42;6.35;;;2.42;;
46429;SDS011;32131;53.454;-6.180;2023-01-24T17:25:18;5.18;;;2.38;;
46429;SDS011;32131;53.454;-6.180;2023-01-24T17:27:50;8.90;;;4.38;;
46429;SDS011;32131;53.454;-6.180;2023-01-24T17:30:25;18.05;;;7.80;;
46429;SDS011;32131;53.454;-6.180;2023-01-24T17:32:57;21.30;;;12.15;;
46429;SDS011;32131;53.454;-6.180;2023-01-24T17:35:37;15.07;;;7.25;;
46429;SDS011;32131;53.454;-6.180;2023-01-24T17:38:20;12.20;;;5.32;;
46429;SDS011;32131;53.454;-6.180;2023-01-24T17:41:08;23.23;;;11.23;;
46429;SDS011;32131;53.454;-6.180;2023-01-24T17:43:54;20.10;;;7.20;;
46429;SDS011;32131;53.454;-6.180;2023-01-24T17:46:36;7.95;;;3.92;;
46429;SDS011;32131;53.454;-6.180;2023-01-24T17:49:23;5.55;;;2.20;;
46429;SDS011;32131;53.454;-6.180;2023-01-24T17:52:04;6.63;;;2.25;;
46429;SDS011;32131;53.454;-6.180;2023-01-24T17:55:09;2.67;;;1.58;;
46429;SDS011;32131;53.454;-6.180;2023-01-24T17:57:48;5.03;;;2.22;;
46429;SDS011;32131;53.454;-6.180;2023-01-24T18:00:18;7.40;;;2.80;;
46429;SDS011;32131;53.454;-6.180;2023-01-24T18:02:59;6.85;;;2.92;;
46429;SDS011;32131;53.454;-6.180;2023-01-24T18:06:10;7.78;;;3.40;;
46429;SDS011;32131;53.454;-6.180;2023-01-24T18:08:50;5.32;;;2.65;;
46429;SDS011;32131;53.454;-6.180;2023-01-24T18:11:23;3.88;;;2.28;;
46429;SDS011;32131;53.454;-6.180;2023-01-24T18:14:04;5.95;;;2.42;;
46429;SDS011;32131;53.454;-6.180;2023-01-24T18:16:57;5.35;;;1.95;;
46429;SDS011;32131;53.454;-6.180;2023-01-24T18:19:34;5.65;;;2.08;;
46429;SDS011;32131;53.454;-6.180;2023-01-24T18:22:15;3.92;;;2.00;;
46429;SDS011;32131;53.454;-6.180;2023-01-24T18:24:50;5.80;;;2.83;;
46429;SDS011;32131;53.454;-6.180;2023-01-24T18:27:38;5.97;;;3.33;;
46429;SDS011;32131;53.454;-6.180;2023-01-24T18:30:11;14.88;;;6.65;;
46429;SDS011;32131;53.454;-6.180;2023-01-24T18:32:43;13.32;;;7.85;;
46429;SDS011;32131;53.454;-6.180;2023-01-24T18:35:38;11.45;;;5.68;;
46429;SDS011;32131;53.454;-6.180;2023-01-24T18:38:20;7.35;;;4.10;;
46429;SDS011;32131;53.454;-6.180;2023-01-24T18:40:54;8.52;;;4.13;;
46429;SDS011;32131;53.454;-6.180;2023-01-24T18:46:35;10.25;;;5.40;;
46429;SDS011;32131;53.454;-6.180;2023-01-24T18:49:14;13.68;;;7.78;;
46429;SDS011;32131;53.454;-6.180;2023-01-24T18:51:56;17.45;;;8.63;;
46429;SDS011;32131;53.454;-6.180;2023-01-24T18:54:56;14.50;;;8.93;;
46429;SDS011;32131;53.454;-6.180;2023-01-24T18:57:43;11.93;;;7.72;;
46429;SDS011;32131;53.454;-6.180;2023-01-24T19:00:18;10.30;;;5.90;;
46429;SDS011;32131;53.454;-6.180;2023-01-24T19:02:55;14.55;;;7.93;;
46429;SDS011;32131;53.454;-6.180;2023-01-24T19:05:24;11.75;;;7.15;;
46429;SDS011;32131;53.454;-6.180;2023-01-24T19:08:00;10.98;;;4.03;;
46429;SDS011;32131;53.454;-6.180;2023-01-24T19:10:51;8.50;;;2.97;;
46429;SDS011;32131;53.454;-6.180;2023-01-24T19:16:37;5.95;;;2.50;;
46429;SDS011;32131;53.454;-6.180;2023-01-24T19:19:16;5.03;;;2.60;;
46429;SDS011;32131;53.454;-6.180;2023-01-24T19:22:09;5.35;;;2.40;;
46429;SDS011;32131;53.454;-6.180;2023-01-24T19:24:54;3.05;;;2.13;;
46429;SDS011;32131;53.454;-6.180;2023-01-24T19:27:29;5.90;;;2.33;;
46429;SDS011;32131;53.454;-6.180;2023-01-24T19:30:11;5.70;;;2.65;;
46429;SDS011;32131;53.454;-6.180;2023-01-24T19:32:42;7.35;;;3.42;;
46429;SDS011;32131;53.454;-6.180;2023-01-24T19:38:19;7.18;;;4.00;;
46429;SDS011;32131;53.454;-6.180;2023-01-24T19:40:57;8.32;;;3.58;;
46429;SDS011;32131;53.454;-6.180;2023-01-24T19:44:13;7.45;;;2.67;;
46429;SDS011;32131;53.454;-6.180;2023-01-24T19:47:07;6.50;;;2.50;;
46429;SDS011;32131;53.454;-6.180;2023-01-24T19:49:40;6.22;;;2.88;;
46429;SDS011;32131;53.454;-6.180;2023-01-24T19:52:09;8.20;;;4.50;;
46429;SDS011;32131;53.454;-6.180;2023-01-24T19:54:45;7.20;;;4.10;;
46429;SDS011;32131;53.454;-6.180;2023-01-24T19:57:16;10.55;;;4.53;;
46429;SDS011;32131;53.454;-6.180;2023-01-24T19:59:51;7.03;;;4.15;;
46429;SDS011;32131;53.454;-6.180;2023-01-24T20:02:41;10.48;;;3.95;;
46429;SDS011;32131;53.454;-6.180;2023-01-24T20:05:39;5.75;;;3.35;;
46429;SDS011;32131;53.454;-6.180;2023-01-24T20:08:24;11.90;;;4.63;;
46429;SDS011;32131;53.454;-6.180;2023-01-24T20:11:05;11.10;;;4.63;;
46429;SDS011;32131;53.454;-6.180;2023-01-24T20:13:49;11.27;;;4.85;;
46429;SDS011;32131;53.454;-6.180;2023-01-24T20:16:38;18.60;;;7.75;;
46429;SDS011;32131;53.454;-6.180;2023-01-24T20:19:16;16.17;;;7.30;;
46429;SDS011;32131;53.454;-6.180;2023-01-24T20:21:54;12.82;;;7.88;;
46429;SDS011;32131;53.454;-6.180;2023-01-24T20:24:35;8.93;;;4.90;;
46429;SDS011;32131;53.454;-6.180;2023-01-24T20:29:39;7.55;;;4.68;;
46429;SDS011;32131;53.454;-6.180;2023-01-24T20:32:08;11.07;;;5.57;;